createdAt,value
2022-11-06T00:00:23.073Z,71.37
2022-11-06T00:02:50.869Z,71.38
2022-11-06T00:05:36.375Z,71.42
2022-11-06T00:08:04.611Z,71.65
2022-11-06T00:10:32.828Z,71.76
2022-11-06T00:13:00.967Z,71.66
2022-11-06T00:15:30.142Z,71.61
2022-11-06T00:17:57.836Z,71.80
2022-11-06T00:20:25.578Z,72.03
2022-11-06T00:22:53.397Z,72.28
2022-11-06T00:25:21.145Z,71.89
2022-11-06T00:27:48.889Z,71.79
2022-11-06T00:30:16.675Z,72.17
2022-11-06T00:32:45.804Z,72.13
2022-11-06T00:35:13.485Z,72.62
2022-11-06T00:37:41.222Z,72.50
2022-11-06T00:40:09.694Z,72.26
2022-11-06T00:42:37.411Z,72.70
2022-11-06T00:45:05.686Z,73.27
2022-11-06T00:47:33.425Z,72.68
2022-11-06T00:50:02.639Z,72.90
2022-11-06T00:52:30.893Z,72.92
2022-11-06T00:54:58.641Z,72.70
2022-11-06T00:57:26.401Z,72.91
2022-11-06T00:59:54.125Z,72.90
2022-11-06T01:02:22.074Z,73.23
2022-11-06T01:04:49.867Z,73.29
2022-11-06T01:07:19.024Z,73.33
2022-11-06T01:09:46.767Z,73.60
2022-11-06T01:12:14.880Z,73.84
2022-11-06T01:14:43.620Z,73.63
2022-11-06T01:17:11.469Z,73.55
2022-11-06T01:19:39.264Z,73.86
2022-11-06T01:22:07.022Z,74.01
2022-11-06T01:24:36.469Z,74.15
2022-11-06T01:27:25.543Z,73.87
2022-11-06T01:29:52.246Z,74.07
2022-11-06T01:32:20.174Z,74.02
2022-11-06T01:34:49.807Z,74.50
2022-11-06T01:37:17.460Z,74.49
2022-11-06T01:39:46.720Z,74.36
2022-11-06T01:42:21.823Z,74.72
2022-11-06T01:45:27.695Z,74.36
2022-11-06T01:47:55.433Z,74.77
2022-11-06T01:50:23.418Z,74.72
2022-11-06T01:52:52.787Z,74.75
2022-11-06T01:55:26.798Z,74.61
2022-11-06T01:57:56.387Z,74.75
2022-11-06T02:00:24.882Z,74.46
2022-11-06T02:02:53.031Z,74.25
2022-11-06T02:05:21.296Z,74.46
2022-11-06T02:07:49.764Z,73.94
2022-11-06T02:10:17.740Z,73.55
2022-11-06T02:13:09.513Z,73.93
2022-11-06T02:15:46.717Z,74.28
2022-11-06T02:18:48.148Z,74.14
2022-11-06T02:21:44.466Z,74.04
2022-11-06T02:24:38.922Z,74.27
2022-11-06T02:27:14.901Z,74.58
2022-11-06T02:29:48.858Z,74.73
2022-11-06T02:32:22.034Z,74.19
2022-11-06T02:34:52.834Z,74.14
2022-11-06T02:37:27.737Z,74.34
2022-11-06T02:39:58.375Z,74.64
2022-11-06T02:42:30.922Z,74.50
2022-11-06T02:44:59.392Z,73.98
2022-11-06T02:47:31.259Z,74.39
2022-11-06T02:50:04.004Z,74.41
2022-11-06T02:52:35.048Z,73.97
2022-11-06T02:55:09.134Z,74.11
2022-11-06T02:57:41.491Z,74.17
2022-11-06T03:00:12.554Z,74.06
2022-11-06T03:02:46.008Z,73.78
2022-11-06T03:05:20.885Z,73.80
2022-11-06T03:07:53.685Z,73.59
2022-11-06T03:10:22.181Z,73.74
2022-11-06T03:12:57.978Z,73.01
2022-11-06T03:15:33.536Z,73.27
2022-11-06T03:18:10.836Z,73.38
2022-11-06T03:20:43.460Z,72.98
2022-11-06T03:23:15.117Z,72.66
2022-11-06T03:25:48.315Z,72.81
2022-11-06T03:28:25.122Z,72.84
2022-11-06T03:30:57.999Z,72.59
2022-11-06T03:33:33.866Z,72.97
2022-11-06T03:36:06.909Z,72.65
2022-11-06T03:38:42.150Z,73.06
2022-11-06T03:41:15.283Z,72.85
2022-11-06T03:43:46.520Z,73.20
2022-11-06T03:46:20.915Z,73.00
2022-11-06T03:48:53.449Z,72.76
2022-11-06T03:51:23.429Z,73.22
2022-11-06T03:53:54.953Z,73.04
2022-11-06T03:56:30.462Z,73.17
2022-11-06T03:59:03.831Z,72.53
2022-11-06T04:01:36.991Z,73.38
2022-11-06T04:04:10.414Z,72.90
2022-11-06T04:06:43.264Z,73.00
2022-11-06T04:09:31.842Z,72.73
2022-11-06T04:12:20.731Z,72.71
2022-11-06T04:14:54.174Z,72.83
2022-11-06T04:17:25.017Z,73.24
2022-11-06T04:19:58.555Z,73.01
2022-11-06T04:22:40.183Z,73.15
2022-11-06T04:25:41.602Z,73.40
2022-11-06T04:28:20.753Z,73.10
2022-11-06T04:30:58.290Z,73.63
2022-11-06T04:33:32.360Z,73.37
2022-11-06T04:36:07.386Z,73.65
2022-11-06T04:38:41.150Z,73.44
2022-11-06T04:41:19.488Z,73.20
2022-11-06T04:43:50.833Z,73.76
2022-11-06T04:46:24.197Z,73.52
2022-11-06T04:48:53.344Z,73.79
2022-11-06T04:51:24.591Z,73.24
2022-11-06T04:53:54.553Z,73.08
2022-11-06T04:56:29.162Z,73.21
2022-11-06T04:58:57.109Z,73.59
2022-11-06T05:01:26.432Z,73.69
2022-11-06T05:03:54.248Z,73.47
2022-11-06T05:06:27.023Z,73.66
2022-11-06T05:08:57.766Z,73.67
2022-11-06T05:11:25.458Z,73.53
2022-11-06T05:13:53.177Z,73.48
2022-11-06T05:16:20.825Z,73.79
2022-11-06T05:18:49.896Z,73.93
2022-11-06T05:21:35.216Z,73.98
2022-11-06T05:24:03.311Z,74.36
2022-11-06T05:26:30.952Z,74.31
2022-11-06T05:28:58.725Z,74.16
2022-11-06T05:31:27.647Z,74.34
2022-11-06T05:33:56.754Z,74.42
2022-11-06T05:36:24.553Z,75.09
2022-11-06T05:38:52.388Z,75.04
2022-11-06T05:41:20.086Z,74.77
2022-11-06T05:43:47.779Z,75.37
2022-11-06T05:49:04.986Z,75.18
2022-11-06T05:51:32.804Z,75.10
2022-11-06T05:54:02.699Z,75.50
2022-11-06T05:56:30.384Z,75.18
2022-11-06T05:58:58.122Z,75.51
2022-11-06T06:01:26.188Z,75.75
2022-11-06T06:03:54.000Z,75.60
2022-11-06T06:06:23.197Z,75.29
2022-11-06T06:08:50.891Z,75.39
2022-11-06T06:11:18.660Z,76.07
2022-11-06T06:13:46.415Z,75.74
2022-11-06T06:16:14.132Z,75.76
2022-11-06T06:18:41.890Z,75.72
2022-11-06T06:21:09.892Z,75.91
2022-11-06T06:23:38.949Z,75.79
2022-11-06T06:26:06.879Z,76.52
2022-11-06T06:28:35.085Z,76.19
2022-11-06T06:31:05.022Z,76.25
2022-11-06T06:33:33.361Z,76.25
2022-11-06T06:36:04.863Z,76.23
2022-11-06T06:38:32.757Z,76.13
2022-11-06T06:41:05.455Z,76.55
2022-11-06T06:43:33.774Z,76.63
2022-11-06T06:46:03.503Z,76.08
2022-11-06T06:48:33.344Z,76.42
2022-11-06T06:51:02.337Z,76.47
2022-11-06T06:53:30.715Z,76.04
2022-11-06T06:56:02.646Z,75.93
2022-11-06T06:58:32.334Z,75.98
2022-11-06T07:01:02.177Z,76.45
2022-11-06T07:03:29.997Z,76.17
2022-11-06T07:05:58.984Z,76.22
2022-11-06T07:08:27.277Z,76.16
2022-11-06T07:10:59.788Z,76.27
2022-11-06T07:13:29.315Z,76.10
2022-11-06T07:16:03.699Z,75.77
2022-11-06T07:18:31.425Z,75.77
2022-11-06T07:20:59.254Z,75.94
2022-11-06T07:23:27.060Z,75.80
2022-11-06T07:25:55.327Z,75.64
2022-11-06T07:28:23.129Z,75.77
2022-11-06T07:30:50.854Z,75.86
2022-11-06T07:33:19.972Z,75.59
2022-11-06T07:35:47.717Z,75.51
2022-11-06T07:38:15.770Z,75.39
2022-11-06T07:40:43.638Z,75.08
2022-11-06T07:43:14.063Z,75.57
2022-11-06T07:45:41.769Z,75.10
2022-11-06T07:48:09.594Z,75.35
2022-11-06T07:50:38.688Z,75.38
2022-11-06T07:53:06.559Z,74.78
2022-11-06T07:55:39.238Z,75.00
2022-11-06T07:58:09.643Z,74.52
2022-11-06T08:00:37.453Z,74.50
2022-11-06T08:03:05.273Z,74.18
2022-11-06T08:05:33.006Z,73.91
2022-11-06T08:08:02.198Z,74.17
2022-11-06T08:10:29.899Z,73.55
2022-11-06T08:12:57.696Z,73.90
2022-11-06T08:15:25.429Z,73.98
2022-11-06T08:17:53.344Z,73.67
2022-11-06T08:20:21.232Z,73.97
2022-11-06T08:22:48.955Z,74.05
2022-11-06T08:25:18.421Z,73.70
2022-11-06T08:27:46.202Z,73.67
2022-11-06T08:30:14.184Z,73.59
2022-11-06T08:32:41.915Z,73.37
2022-11-06T08:35:10.408Z,73.44
2022-11-06T08:37:38.237Z,72.97
2022-11-06T08:40:07.083Z,73.04
2022-11-06T08:42:36.170Z,72.81
2022-11-06T08:45:04.422Z,72.89
2022-11-06T08:47:32.142Z,72.47
2022-11-06T08:49:59.873Z,72.39
2022-11-06T08:52:32.805Z,72.43
2022-11-06T08:55:01.706Z,71.96
2022-11-06T08:57:29.554Z,72.14
2022-11-06T08:59:58.693Z,71.76
2022-11-06T09:02:26.828Z,71.65
2022-11-06T09:04:54.730Z,71.04
2022-11-06T09:07:22.594Z,71.14
2022-11-06T09:09:50.413Z,71.34
2022-11-06T09:12:18.253Z,70.91
2022-11-06T09:14:46.079Z,71.18
2022-11-06T09:17:16.721Z,70.84
2022-11-06T09:19:44.528Z,70.49
2022-11-06T09:22:12.253Z,70.38
2022-11-06T09:25:01.846Z,70.42
2022-11-06T09:27:27.808Z,70.75
2022-11-06T09:29:55.595Z,70.40
2022-11-06T09:32:25.541Z,70.46
2022-11-06T09:34:53.302Z,70.38
2022-11-06T09:37:21.087Z,69.95
2022-11-06T09:39:48.905Z,69.93
2022-11-06T09:42:29.038Z,69.82
2022-11-06T09:45:09.074Z,69.77
2022-11-06T09:47:42.960Z,69.70
2022-11-06T09:50:18.806Z,69.39
2022-11-06T09:52:51.518Z,69.29
2022-11-06T09:55:24.075Z,68.83
2022-11-06T09:57:55.908Z,68.38
2022-11-06T10:00:24.422Z,68.19
2022-11-06T10:02:58.054Z,67.47
2022-11-06T10:05:28.444Z,67.50
2022-11-06T10:07:59.147Z,67.34
2022-11-06T10:10:32.436Z,67.25
2022-11-06T10:13:17.535Z,67.31
2022-11-06T10:15:51.838Z,67.33
2022-11-06T10:18:29.445Z,67.30
2022-11-06T10:21:08.359Z,67.27
2022-11-06T10:23:45.725Z,66.95
2022-11-06T10:26:16.454Z,66.67
2022-11-06T10:29:01.220Z,66.96
2022-11-06T10:31:34.944Z,66.63
2022-11-06T10:34:09.366Z,66.83
2022-11-06T10:36:48.743Z,66.67
2022-11-06T10:39:24.448Z,66.82
2022-11-06T10:41:57.712Z,66.54
2022-11-06T10:44:30.233Z,67.08
2022-11-06T10:47:01.959Z,66.79
2022-11-06T10:49:43.043Z,67.17
2022-11-06T10:52:49.632Z,66.95
2022-11-06T10:55:47.090Z,66.74
2022-11-06T10:58:17.889Z,66.76
2022-11-06T11:00:46.033Z,66.95
2022-11-06T11:03:25.700Z,66.42
2022-11-06T11:05:55.672Z,66.84
2022-11-06T11:08:40.322Z,66.45
2022-11-06T11:11:19.851Z,66.47
2022-11-06T11:13:49.760Z,66.48
2022-11-06T11:16:19.902Z,66.52
2022-11-06T11:18:47.823Z,66.50
2022-11-06T11:21:24.283Z,66.37
2022-11-06T11:24:09.316Z,66.63
2022-11-06T11:26:42.142Z,66.63
2022-11-06T11:29:20.425Z,66.82
2022-11-06T11:31:52.502Z,66.51
2022-11-06T11:34:22.793Z,66.51
2022-11-06T11:36:57.763Z,65.84
2022-11-06T11:39:28.918Z,65.74
2022-11-06T11:42:27.568Z,65.89
2022-11-06T11:45:14.077Z,65.56
2022-11-06T11:47:43.846Z,65.52
2022-11-06T11:50:25.607Z,65.31
2022-11-06T11:52:59.797Z,65.46
2022-11-06T11:55:29.850Z,65.04
2022-11-06T11:58:00.273Z,64.43
2022-11-06T12:00:29.902Z,64.31
2022-11-06T12:03:02.652Z,63.92
2022-11-06T12:05:35.727Z,64.26
2022-11-06T12:08:05.749Z,63.99
2022-11-06T12:10:35.974Z,63.81
2022-11-06T12:13:06.182Z,63.52
2022-11-06T12:15:42.492Z,63.28
2022-11-06T12:18:15.460Z,63.58
2022-11-06T12:20:52.382Z,62.80
2022-11-06T12:23:27.910Z,61.98
2022-11-06T12:26:05.403Z,62.42
2022-11-06T12:28:38.837Z,62.32
2022-11-06T12:31:13.979Z,61.74
2022-11-06T12:34:05.091Z,61.73
2022-11-06T12:36:37.015Z,61.45
2022-11-06T12:39:15.158Z,61.79
2022-11-06T12:41:46.874Z,61.87
2022-11-06T12:44:17.528Z,62.19
2022-11-06T12:46:52.437Z,61.56
2022-11-06T12:49:35.989Z,61.60
2022-11-06T12:52:22.107Z,61.38
2022-11-06T12:55:08.748Z,61.51
2022-11-06T12:57:48.673Z,61.33
2022-11-06T13:00:21.013Z,61.57
2022-11-06T13:03:13.335Z,61.75
2022-11-06T13:05:49.434Z,61.67
2022-11-06T13:08:29.923Z,62.02
2022-11-06T13:11:10.500Z,62.45
2022-11-06T13:13:50.041Z,62.32
2022-11-06T13:16:30.082Z,62.03
2022-11-06T13:19:05.928Z,62.31
2022-11-06T13:21:57.926Z,62.05
2022-11-06T13:24:33.537Z,61.32
2022-11-06T13:27:10.189Z,61.35
2022-11-06T13:29:39.015Z,61.33
2022-11-06T13:32:13.543Z,61.84
2022-11-06T13:34:43.563Z,61.27
2022-11-06T13:37:16.350Z,61.25
2022-11-06T13:39:48.156Z,61.14
2022-11-06T13:42:24.304Z,60.98
2022-11-06T13:44:55.247Z,60.73
2022-11-06T13:47:30.072Z,61.28
2022-11-06T13:50:08.581Z,61.51
2022-11-06T13:52:43.057Z,61.55
2022-11-06T13:55:21.590Z,61.58
2022-11-06T13:58:26.198Z,61.37
2022-11-06T14:01:06.830Z,61.91
2022-11-06T14:03:59.532Z,61.87
2022-11-06T14:06:31.760Z,61.67
2022-11-06T14:09:03.996Z,62.03
2022-11-06T14:11:35.476Z,62.10
2022-11-06T14:14:06.612Z,62.04
2022-11-06T14:16:37.433Z,62.01
2022-11-06T16:33:28.672Z,73.56
2022-11-06T17:05:41.485Z,74.09
2022-11-06T17:12:24.770Z,72.87
2022-11-06T18:13:23.486Z,70.32
2022-11-06T18:15:53.454Z,70.31
2022-11-06T18:18:21.543Z,70.54
2022-11-06T18:20:50.510Z,70.05
2022-11-06T18:23:18.475Z,69.54
2022-11-06T18:25:54.229Z,69.08
2022-11-06T18:28:22.544Z,68.97
2022-11-06T18:30:50.271Z,69.26
2022-11-06T18:33:20.109Z,69.12
2022-11-06T18:35:48.246Z,69.31
2022-11-06T18:38:16.761Z,69.39
2022-11-06T18:40:48.902Z,68.80
2022-11-06T18:43:19.295Z,68.71
2022-11-06T18:45:49.095Z,68.84
2022-11-06T18:48:21.018Z,68.56
2022-11-06T18:50:50.918Z,68.28
2022-11-06T18:53:18.626Z,68.63
2022-11-06T18:55:47.072Z,68.96
2022-11-06T18:58:15.117Z,68.67
2022-11-06T19:00:43.042Z,68.29
2022-11-06T19:03:11.834Z,68.73
2022-11-06T19:05:39.797Z,68.82
2022-11-06T19:08:08.889Z,68.28
2022-11-06T19:10:38.481Z,68.88
2022-11-06T19:13:06.269Z,68.33
2022-11-06T19:15:33.971Z,68.17
2022-11-06T19:18:02.097Z,68.23
2022-11-06T19:20:29.822Z,68.04
2022-11-06T19:22:58.233Z,67.91
2022-11-06T19:25:27.682Z,68.42
2022-11-06T19:27:56.303Z,67.86
2022-11-06T19:30:24.029Z,68.50
2022-11-06T19:32:51.706Z,69.23
2022-11-06T19:35:19.891Z,68.87
2022-11-06T19:37:48.050Z,68.83
2022-11-06T19:40:27.656Z,69.21
2022-11-06T19:42:59.468Z,68.88
2022-11-06T19:45:27.422Z,68.53
2022-11-06T19:47:55.137Z,68.86
2022-11-06T19:50:45.837Z,68.56
2022-11-06T19:53:10.725Z,67.92
2022-11-06T19:55:40.042Z,67.99
2022-11-06T19:58:09.171Z,67.69
2022-11-06T20:00:38.264Z,67.44
2022-11-06T20:03:06.224Z,67.94
2022-11-06T20:05:34.046Z,67.67
2022-11-06T20:08:04.890Z,67.84
2022-11-06T20:10:33.097Z,68.55
2022-11-06T20:13:00.765Z,67.95
2022-11-06T20:15:30.575Z,68.22
2022-11-06T20:17:58.388Z,68.35
2022-11-06T20:20:26.385Z,68.49
2022-11-06T20:22:54.131Z,68.32
2022-11-06T20:25:21.797Z,68.68
2022-11-06T20:27:49.887Z,68.70
2022-11-06T20:30:17.809Z,68.67
2022-11-06T20:32:47.407Z,68.85
2022-11-06T20:35:16.911Z,68.76
2022-11-06T20:37:44.947Z,69.45
2022-11-06T20:40:13.310Z,69.02
2022-11-06T20:42:42.984Z,69.60
2022-11-06T20:45:11.145Z,69.65
2022-11-06T20:47:38.821Z,69.78
2022-11-06T20:50:08.299Z,69.74
2022-11-06T20:52:35.982Z,70.16
2022-11-06T20:55:04.034Z,69.92
2022-11-06T20:57:31.785Z,69.88
2022-11-06T20:59:59.618Z,70.19
2022-11-06T21:02:27.540Z,70.63
2022-11-06T21:04:55.322Z,70.71
2022-11-06T21:07:25.476Z,70.82
2022-11-06T21:09:53.276Z,71.41
2022-11-06T21:12:21.064Z,71.74
2022-11-06T21:14:49.018Z,71.82
2022-11-06T21:17:16.921Z,72.10
2022-11-06T21:19:44.551Z,71.85
2022-11-06T21:22:12.280Z,72.35
2022-11-06T21:24:41.813Z,72.43
2022-11-06T21:27:10.726Z,73.00
2022-11-06T21:29:38.525Z,72.99
2022-11-06T21:32:10.854Z,72.91
2022-11-06T21:34:38.523Z,73.13
2022-11-06T21:37:06.248Z,73.56
2022-11-06T21:39:36.471Z,73.94
2022-11-06T21:42:06.902Z,73.81
2022-11-06T21:44:34.617Z,74.57
2022-11-06T21:47:02.308Z,74.37
2022-11-06T21:49:30.056Z,74.24
2022-11-06T21:52:17.736Z,74.24
2022-11-06T21:55:03.086Z,74.22
2022-11-06T21:57:32.207Z,74.65
2022-11-06T21:59:59.893Z,74.32
2022-11-06T22:02:27.697Z,74.49
2022-11-06T22:04:55.442Z,74.81
2022-11-06T22:07:23.076Z,74.64
2022-11-06T22:09:53.381Z,74.57
2022-11-06T22:12:21.156Z,75.09
2022-11-06T22:14:50.149Z,74.86
2022-11-06T22:17:17.815Z,74.92
2022-11-06T22:19:45.769Z,74.87
2022-11-06T22:22:13.452Z,74.42
2022-11-06T22:24:41.099Z,74.40
2022-11-06T22:27:09.095Z,74.76
2022-11-06T22:29:36.731Z,74.65
2022-11-06T22:32:06.432Z,74.66
2022-11-06T22:34:34.038Z,74.73
2022-11-06T22:37:01.705Z,74.78
2022-11-06T22:39:29.449Z,74.74
2022-11-06T22:41:57.127Z,74.80
2022-11-06T22:44:24.963Z,74.63
2022-11-06T22:46:52.903Z,74.86
2022-11-06T22:49:21.961Z,75.19
2022-11-06T22:51:49.605Z,74.88
2022-11-06T22:54:17.377Z,75.13
2022-11-06T22:56:47.368Z,75.13
2022-11-06T22:59:15.078Z,74.97
2022-11-06T23:01:43.385Z,74.85
2022-11-06T23:04:15.729Z,74.76
2022-11-06T23:06:45.591Z,74.80
2022-11-06T23:09:14.206Z,74.76
2022-11-06T23:11:42.050Z,75.04
2022-11-06T23:14:09.775Z,75.38
2022-11-06T23:16:55.286Z,75.47
2022-11-06T23:19:23.292Z,75.34
2022-11-06T23:22:12.880Z,75.47
2022-11-06T23:24:41.634Z,74.86
2022-11-06T23:27:10.469Z,75.24
2022-11-06T23:29:40.409Z,75.16
2022-11-06T23:32:09.075Z,75.29
2022-11-06T23:34:36.960Z,75.54
2022-11-06T23:37:06.008Z,75.52
2022-11-06T23:39:33.667Z,75.75
2022-11-06T23:42:01.406Z,75.86
2022-11-06T23:44:46.624Z,76.04
2022-11-06T23:47:14.260Z,76.48
2022-11-06T23:49:41.921Z,76.35
2022-11-06T23:52:10.946Z,76.54
2022-11-06T23:54:38.622Z,75.90
2022-11-06T23:57:06.318Z,75.98
2022-11-06T23:59:33.981Z,75.87
